sensor_id;sensor_type;location;lat;lon;timestamp;temperature;humidity
8965;DHT22;4517;49.020;12.066;2023-04-01T00:01:25;8.00;99.90
8965;DHT22;4517;49.020;12.066;2023-04-01T00:03:51;8.00;99.90
8965;DHT22;4517;49.020;12.066;2023-04-01T00:06:17;8.00;99.90
8965;DHT22;4517;49.020;12.066;2023-04-01T00:08:43;8.10;99.90
8965;DHT22;4517;49.020;12.066;2023-04-01T00:11:10;8.20;99.90
8965;DHT22;4517;49.020;12.066;2023-04-01T00:13:36;8.10;99.90
8965;DHT22;4517;49.020;12.066;2023-04-01T00:16:02;8.10;99.90
8965;DHT22;4517;49.020;12.066;2023-04-01T00:18:28;8.10;99.90
8965;DHT22;4517;49.020;12.066;2023-04-01T00:20:54;8.30;99.90
8965;DHT22;4517;49.020;12.066;2023-04-01T00:23:20;8.30;99.90
8965;DHT22;4517;49.020;12.066;2023-04-01T00:25:46;8.30;99.90
8965;DHT22;4517;49.020;12.066;2023-04-01T00:28:14;8.20;99.90
8965;DHT22;4517;49.020;12.066;2023-04-01T00:30:40;8.30;99.90
8965;DHT22;4517;49.020;12.066;2023-04-01T00:33:06;8.20;99.90
8965;DHT22;4517;49.020;12.066;2023-04-01T00:35:32;8.20;99.90
8965;DHT22;4517;49.020;12.066;2023-04-01T00:37:58;8.30;99.90
8965;DHT22;4517;49.020;12.066;2023-04-01T00:40:34;8.20;99.90
8965;DHT22;4517;49.020;12.066;2023-04-01T00:43:01;8.10;99.90
8965;DHT22;4517;49.020;12.066;2023-04-01T00:45:32;8.00;99.90
8965;DHT22;4517;49.020;12.066;2023-04-01T00:48:05;7.90;99.90
8965;DHT22;4517;49.020;12.066;2023-04-01T00:50:32;8.00;99.90
8965;DHT22;4517;49.020;12.066;2023-04-01T00:53:00;8.10;99.90
8965;DHT22;4517;49.020;12.066;2023-04-01T00:55:27;8.10;99.90
8965;DHT22;4517;49.020;12.066;2023-04-01T00:57:54;7.90;99.90
8965;DHT22;4517;49.020;12.066;2023-04-01T01:00:22;7.90;99.90
8965;DHT22;4517;49.020;12.066;2023-04-01T01:02:49;8.00;99.90
8965;DHT22;4517;49.020;12.066;2023-04-01T01:05:17;8.10;99.90
8965;DHT22;4517;49.020;12.066;2023-04-01T01:08:06;8.20;99.90
8965;DHT22;4517;49.020;12.066;2023-04-01T01:10:37;8.10;99.90
8965;DHT22;4517;49.020;12.066;2023-04-01T01:15:41;8.20;99.90
8965;DHT22;4517;49.020;12.066;2023-04-01T01:21:21;7.90;99.90
8965;DHT22;4517;49.020;12.066;2023-04-01T01:26:53;7.90;99.90
8965;DHT22;4517;49.020;12.066;2023-04-01T01:34:50;8.10;99.90
8965;DHT22;4517;49.020;12.066;2023-04-01T01:37:21;8.10;99.90
8965;DHT22;4517;49.020;12.066;2023-04-01T01:39:54;8.20;99.90
8965;DHT22;4517;49.020;12.066;2023-04-01T01:42:21;8.20;99.90
8965;DHT22;4517;49.020;12.066;2023-04-01T01:44:49;8.20;99.90
8965;DHT22;4517;49.020;12.066;2023-04-01T01:47:16;8.20;99.90
8965;DHT22;4517;49.020;12.066;2023-04-01T01:49:43;8.20;99.90
8965;DHT22;4517;49.020;12.066;2023-04-01T01:52:09;8.30;99.90
8965;DHT22;4517;49.020;12.066;2023-04-01T01:54:35;8.30;99.90
8965;DHT22;4517;49.020;12.066;2023-04-01T01:57:09;8.30;99.90
8965;DHT22;4517;49.020;12.066;2023-04-01T01:59:38;8.40;99.90
8965;DHT22;4517;49.020;12.066;2023-04-01T02:02:05;8.40;99.90
8965;DHT22;4517;49.020;12.066;2023-04-01T02:04:38;8.50;99.90
8965;DHT22;4517;49.020;12.066;2023-04-01T02:07:10;8.40;99.90
8965;DHT22;4517;49.020;12.066;2023-04-01T02:09:37;8.40;99.90
8965;DHT22;4517;49.020;12.066;2023-04-01T02:12:06;8.40;99.90
8965;DHT22;4517;49.020;12.066;2023-04-01T02:14:53;8.50;99.90
8965;DHT22;4517;49.020;12.066;2023-04-01T02:17:22;8.50;99.90
8965;DHT22;4517;49.020;12.066;2023-04-01T02:19:56;8.40;99.90
8965;DHT22;4517;49.020;12.066;2023-04-01T02:22:28;8.30;99.90
8965;DHT22;4517;49.020;12.066;2023-04-01T02:24:58;8.20;99.90
8965;DHT22;4517;49.020;12.066;2023-04-01T02:27:25;8.10;99.90
8965;DHT22;4517;49.020;12.066;2023-04-01T02:29:51;7.90;99.90
8965;DHT22;4517;49.020;12.066;2023-04-01T02:32:19;7.90;99.90
8965;DHT22;4517;49.020;12.066;2023-04-01T02:34:46;8.00;99.90
8965;DHT22;4517;49.020;12.066;2023-04-01T02:37:13;8.00;99.90
8965;DHT22;4517;49.020;12.066;2023-04-01T02:39:39;8.00;99.90
8965;DHT22;4517;49.020;12.066;2023-04-01T02:42:05;8.10;99.90
8965;DHT22;4517;49.020;12.066;2023-04-01T02:44:31;8.00;99.90
8965;DHT22;4517;49.020;12.066;2023-04-01T02:46:56;8.10;99.90
8965;DHT22;4517;49.020;12.066;2023-04-01T02:49:22;8.10;99.90
8965;DHT22;4517;49.020;12.066;2023-04-01T02:51:47;8.00;99.90
8965;DHT22;4517;49.020;12.066;2023-04-01T02:54:13;8.00;99.90
8965;DHT22;4517;49.020;12.066;2023-04-01T02:56:39;8.10;99.90
8965;DHT22;4517;49.020;12.066;2023-04-01T02:59:04;8.10;99.90
8965;DHT22;4517;49.020;12.066;2023-04-01T03:01:30;8.00;99.90
8965;DHT22;4517;49.020;12.066;2023-04-01T03:03:56;8.00;99.90
8965;DHT22;4517;49.020;12.066;2023-04-01T03:06:21;8.00;99.90
8965;DHT22;4517;49.020;12.066;2023-04-01T03:08:47;8.00;99.90
8965;DHT22;4517;49.020;12.066;2023-04-01T03:11:13;8.10;99.90
8965;DHT22;4517;49.020;12.066;2023-04-01T03:13:39;8.20;99.90
8965;DHT22;4517;49.020;12.066;2023-04-01T03:16:05;8.20;99.90
8965;DHT22;4517;49.020;12.066;2023-04-01T03:18:30;8.10;99.90
8965;DHT22;4517;49.020;12.066;2023-04-01T03:20:56;8.10;99.90
8965;DHT22;4517;49.020;12.066;2023-04-01T03:23:22;8.10;99.90
8965;DHT22;4517;49.020;12.066;2023-04-01T03:25:50;8.00;99.90
8965;DHT22;4517;49.020;12.066;2023-04-01T03:28:15;7.90;99.90
8965;DHT22;4517;49.020;12.066;2023-04-01T03:30:42;7.80;99.90
8965;DHT22;4517;49.020;12.066;2023-04-01T03:33:08;7.80;99.90
8965;DHT22;4517;49.020;12.066;2023-04-01T03:35:33;7.70;99.90
8965;DHT22;4517;49.020;12.066;2023-04-01T03:38:01;7.70;99.90
8965;DHT22;4517;49.020;12.066;2023-04-01T03:40:26;7.80;99.90
8965;DHT22;4517;49.020;12.066;2023-04-01T03:42:52;7.90;99.90
8965;DHT22;4517;49.020;12.066;2023-04-01T03:45:17;8.00;99.90
8965;DHT22;4517;49.020;12.066;2023-04-01T03:47:43;8.00;99.90
8965;DHT22;4517;49.020;12.066;2023-04-01T03:50:09;8.00;99.90
8965;DHT22;4517;49.020;12.066;2023-04-01T03:52:35;8.00;99.90
8965;DHT22;4517;49.020;12.066;2023-04-01T03:55:01;8.10;99.90
8965;DHT22;4517;49.020;12.066;2023-04-01T03:57:27;8.10;99.90
8965;DHT22;4517;49.020;12.066;2023-04-01T03:59:53;8.00;99.90
8965;DHT22;4517;49.020;12.066;2023-04-01T04:02:19;8.00;99.90
8965;DHT22;4517;49.020;12.066;2023-04-01T04:04:45;7.90;99.90
8965;DHT22;4517;49.020;12.066;2023-04-01T04:07:11;7.90;99.90
8965;DHT22;4517;49.020;12.066;2023-04-01T04:09:37;7.90;99.90
8965;DHT22;4517;49.020;12.066;2023-04-01T04:12:03;7.80;99.90
8965;DHT22;4517;49.020;12.066;2023-04-01T04:14:31;7.70;99.90
8965;DHT22;4517;49.020;12.066;2023-04-01T04:16:56;7.80;99.90
8965;DHT22;4517;49.020;12.066;2023-04-01T04:19:22;8.00;99.90
8965;DHT22;4517;49.020;12.066;2023-04-01T04:21:47;8.20;99.90
8965;DHT22;4517;49.020;12.066;2023-04-01T04:24:13;8.20;99.90
8965;DHT22;4517;49.020;12.066;2023-04-01T04:26:39;8.10;99.90
8965;DHT22;4517;49.020;12.066;2023-04-01T04:29:05;8.20;99.90
8965;DHT22;4517;49.020;12.066;2023-04-01T04:31:31;8.10;99.90
8965;DHT22;4517;49.020;12.066;2023-04-01T04:33:59;8.10;99.90
8965;DHT22;4517;49.020;12.066;2023-04-01T04:36:25;8.40;99.90
8965;DHT22;4517;49.020;12.066;2023-04-01T04:38:51;8.60;99.90
8965;DHT22;4517;49.020;12.066;2023-04-01T04:41:18;8.50;99.90
8965;DHT22;4517;49.020;12.066;2023-04-01T04:43:50;8.40;99.90
8965;DHT22;4517;49.020;12.066;2023-04-01T04:46:16;8.20;99.90
8965;DHT22;4517;49.020;12.066;2023-04-01T04:48:42;8.20;99.90
8965;DHT22;4517;49.020;12.066;2023-04-01T04:51:13;8.10;99.90
8965;DHT22;4517;49.020;12.066;2023-04-01T04:53:38;8.00;99.90
8965;DHT22;4517;49.020;12.066;2023-04-01T04:56:04;7.80;99.90
8965;DHT22;4517;49.020;12.066;2023-04-01T04:58:30;7.60;99.90
8965;DHT22;4517;49.020;12.066;2023-04-01T05:00:55;7.40;99.90
8965;DHT22;4517;49.020;12.066;2023-04-01T05:03:21;7.40;99.90
8965;DHT22;4517;49.020;12.066;2023-04-01T05:05:52;7.30;99.90
8965;DHT22;4517;49.020;12.066;2023-04-01T05:08:18;7.30;99.90
8965;DHT22;4517;49.020;12.066;2023-04-01T05:10:44;7.30;99.90
8965;DHT22;4517;49.020;12.066;2023-04-01T05:13:10;7.30;99.90
8965;DHT22;4517;49.020;12.066;2023-04-01T05:15:37;7.20;99.90
8965;DHT22;4517;49.020;12.066;2023-04-01T05:18:03;7.30;99.90
8965;DHT22;4517;49.020;12.066;2023-04-01T05:20:28;7.40;99.90
8965;DHT22;4517;49.020;12.066;2023-04-01T05:22:58;7.60;99.90
8965;DHT22;4517;49.020;12.066;2023-04-01T05:25:24;7.70;99.90
8965;DHT22;4517;49.020;12.066;2023-04-01T05:27:51;7.80;99.90
8965;DHT22;4517;49.020;12.066;2023-04-01T05:30:17;7.80;99.90
8965;DHT22;4517;49.020;12.066;2023-04-01T05:32:43;8.00;99.90
8965;DHT22;4517;49.020;12.066;2023-04-01T05:35:09;8.10;99.90
8965;DHT22;4517;49.020;12.066;2023-04-01T05:37:35;8.10;99.90
8965;DHT22;4517;49.020;12.066;2023-04-01T05:40:01;8.20;99.90
8965;DHT22;4517;49.020;12.066;2023-04-01T05:42:27;8.30;99.90
8965;DHT22;4517;49.020;12.066;2023-04-01T05:44:53;8.30;99.90
8965;DHT22;4517;49.020;12.066;2023-04-01T05:47:18;8.40;99.90
8965;DHT22;4517;49.020;12.066;2023-04-01T05:49:44;8.50;99.90
8965;DHT22;4517;49.020;12.066;2023-04-01T05:52:09;8.60;99.90
8965;DHT22;4517;49.020;12.066;2023-04-01T05:54:35;8.60;99.90
8965;DHT22;4517;49.020;12.066;2023-04-01T05:57:01;8.70;99.90
8965;DHT22;4517;49.020;12.066;2023-04-01T05:59:26;8.90;99.90
8965;DHT22;4517;49.020;12.066;2023-04-01T06:01:52;8.80;99.90
8965;DHT22;4517;49.020;12.066;2023-04-01T06:04:18;9.00;99.90
8965;DHT22;4517;49.020;12.066;2023-04-01T06:06:44;9.00;99.90
8965;DHT22;4517;49.020;12.066;2023-04-01T06:09:15;9.10;99.90
8965;DHT22;4517;49.020;12.066;2023-04-01T06:17:27;9.30;99.90
8965;DHT22;4517;49.020;12.066;2023-04-01T06:20:03;9.40;99.90
8965;DHT22;4517;49.020;12.066;2023-04-01T06:22:57;9.50;99.90
8965;DHT22;4517;49.020;12.066;2023-04-01T06:34:01;9.80;99.90
8965;DHT22;4517;49.020;12.066;2023-04-01T06:40:03;9.90;99.90
8965;DHT22;4517;49.020;12.066;2023-04-01T06:50:55;10.40;99.90
8965;DHT22;4517;49.020;12.066;2023-04-01T06:53:40;10.70;99.90
8965;DHT22;4517;49.020;12.066;2023-04-01T06:56:11;10.60;99.90
8965;DHT22;4517;49.020;12.066;2023-04-01T06:58:51;10.60;99.90
8965;DHT22;4517;49.020;12.066;2023-04-01T07:01:34;10.70;99.90
8965;DHT22;4517;49.020;12.066;2023-04-01T07:04:06;10.80;99.90
8965;DHT22;4517;49.020;12.066;2023-04-01T07:06:36;10.90;99.90
8965;DHT22;4517;49.020;12.066;2023-04-01T07:09:10;10.80;99.90
8965;DHT22;4517;49.020;12.066;2023-04-01T07:11:38;10.60;99.90
8965;DHT22;4517;49.020;12.066;2023-04-01T07:16:47;10.70;99.90
8965;DHT22;4517;49.020;12.066;2023-04-01T07:24:37;11.10;99.90
8965;DHT22;4517;49.020;12.066;2023-04-01T07:27:10;11.40;99.90
8965;DHT22;4517;49.020;12.066;2023-04-01T07:29:36;11.60;99.90
8965;DHT22;4517;49.020;12.066;2023-04-01T07:32:15;11.80;99.90
8965;DHT22;4517;49.020;12.066;2023-04-01T07:34:58;11.90;99.90
8965;DHT22;4517;49.020;12.066;2023-04-01T07:40:22;12.10;99.90
8965;DHT22;4517;49.020;12.066;2023-04-01T07:43:28;12.10;99.90
8965;DHT22;4517;49.020;12.066;2023-04-01T07:49:08;12.10;99.90
8965;DHT22;4517;49.020;12.066;2023-04-01T07:51:56;12.40;99.90
8965;DHT22;4517;49.020;12.066;2023-04-01T07:57:19;12.40;99.90
8965;DHT22;4517;49.020;12.066;2023-04-01T08:00:23;12.50;99.90
8965;DHT22;4517;49.020;12.066;2023-04-01T08:03:00;12.70;99.90
8965;DHT22;4517;49.020;12.066;2023-04-01T08:05:34;12.90;99.90
8965;DHT22;4517;49.020;12.066;2023-04-01T08:11:19;12.80;99.90
8965;DHT22;4517;49.020;12.066;2023-04-01T08:14:18;12.70;99.90
8965;DHT22;4517;49.020;12.066;2023-04-01T08:17:01;12.90;99.90
8965;DHT22;4517;49.020;12.066;2023-04-01T08:22:22;13.30;99.90
8965;DHT22;4517;49.020;12.066;2023-04-01T08:24:51;13.40;99.90
8965;DHT22;4517;49.020;12.066;2023-04-01T08:27:28;13.30;99.90
8965;DHT22;4517;49.020;12.066;2023-04-01T08:32:51;13.20;99.90
8965;DHT22;4517;49.020;12.066;2023-04-01T08:35:24;13.50;99.90
8965;DHT22;4517;49.020;12.066;2023-04-01T08:37:53;13.80;99.90
8965;DHT22;4517;49.020;12.066;2023-04-01T08:40:57;14.00;99.90
8965;DHT22;4517;49.020;12.066;2023-04-01T08:46:32;14.00;99.90
8965;DHT22;4517;49.020;12.066;2023-04-01T08:57:37;14.80;99.90
8965;DHT22;4517;49.020;12.066;2023-04-01T09:00:33;14.60;99.90
8965;DHT22;4517;49.020;12.066;2023-04-01T09:03:37;14.50;99.90
8965;DHT22;4517;49.020;12.066;2023-04-01T09:09:35;14.40;99.90
8965;DHT22;4517;49.020;12.066;2023-04-01T09:12:28;14.50;99.90
8965;DHT22;4517;49.020;12.066;2023-04-01T09:15:26;14.70;99.90
8965;DHT22;4517;49.020;12.066;2023-04-01T09:21:01;14.60;99.90
8965;DHT22;4517;49.020;12.066;2023-04-01T09:37:35;15.20;99.90
8965;DHT22;4517;49.020;12.066;2023-04-01T09:40:16;15.10;99.90
8965;DHT22;4517;49.020;12.066;2023-04-01T09:43:06;15.00;99.90
8965;DHT22;4517;49.020;12.066;2023-04-01T09:45:42;14.80;99.90
8965;DHT22;4517;49.020;12.066;2023-04-01T09:51:09;14.40;99.90
8965;DHT22;4517;49.020;12.066;2023-04-01T09:57:02;14.20;99.90
8965;DHT22;4517;49.020;12.066;2023-04-01T10:08:32;14.10;99.90
8965;DHT22;4517;49.020;12.066;2023-04-01T10:11:39;14.20;99.90
8965;DHT22;4517;49.020;12.066;2023-04-01T10:23:16;14.20;99.90
8965;DHT22;4517;49.020;12.066;2023-04-01T10:26:08;14.20;99.90
8965;DHT22;4517;49.020;12.066;2023-04-01T10:53:47;14.30;99.90
8965;DHT22;4517;49.020;12.066;2023-04-01T10:56:36;14.30;99.90
8965;DHT22;4517;49.020;12.066;2023-04-01T11:11:04;14.50;99.90
8965;DHT22;4517;49.020;12.066;2023-04-01T11:13:49;14.80;99.90
8965;DHT22;4517;49.020;12.066;2023-04-01T11:16:54;14.70;99.90
8965;DHT22;4517;49.020;12.066;2023-04-01T11:19:39;14.30;99.90
8965;DHT22;4517;49.020;12.066;2023-04-01T11:27:53;14.00;99.90
8965;DHT22;4517;49.020;12.066;2023-04-01T11:33:43;13.70;99.90
8965;DHT22;4517;49.020;12.066;2023-04-01T11:44:32;12.70;99.90
8965;DHT22;4517;49.020;12.066;2023-04-01T11:49:44;12.60;99.90
8965;DHT22;4517;49.020;12.066;2023-04-01T11:52:33;12.70;99.90
8965;DHT22;4517;49.020;12.066;2023-04-01T11:57:51;12.70;99.90
8965;DHT22;4517;49.020;12.066;2023-04-01T12:03:16;12.50;99.90
8965;DHT22;4517;49.020;12.066;2023-04-01T12:17:43;13.00;99.90
8965;DHT22;4517;49.020;12.066;2023-04-01T12:25:38;14.20;99.90
8965;DHT22;4517;49.020;12.066;2023-04-01T12:28:22;13.70;99.90
8965;DHT22;4517;49.020;12.066;2023-04-01T12:31:03;13.10;99.90
8965;DHT22;4517;49.020;12.066;2023-04-01T12:36:31;12.40;99.90
8965;DHT22;4517;49.020;12.066;2023-04-01T12:42:05;12.10;99.90
8965;DHT22;4517;49.020;12.066;2023-04-01T12:44:43;12.30;99.90
8965;DHT22;4517;49.020;12.066;2023-04-01T12:50:16;12.70;99.90
8965;DHT22;4517;49.020;12.066;2023-04-01T12:55:36;12.40;99.90
8965;DHT22;4517;49.020;12.066;2023-04-01T13:04:27;12.10;99.90
8965;DHT22;4517;49.020;12.066;2023-04-01T13:09:55;12.00;99.90
8965;DHT22;4517;49.020;12.066;2023-04-01T13:18:29;11.70;99.90
8965;DHT22;4517;49.020;12.066;2023-04-01T13:21:14;11.60;99.90
8965;DHT22;4517;49.020;12.066;2023-04-01T13:24:04;11.50;99.90
8965;DHT22;4517;49.020;12.066;2023-04-01T13:29:19;11.50;99.90
8965;DHT22;4517;49.020;12.066;2023-04-01T13:37:42;11.60;99.90
8965;DHT22;4517;49.020;12.066;2023-04-01T13:46:01;11.30;99.90
8965;DHT22;4517;49.020;12.066;2023-04-01T13:51:49;11.10;99.90
8965;DHT22;4517;49.020;12.066;2023-04-01T14:08:59;11.40;99.90
8965;DHT22;4517;49.020;12.066;2023-04-01T14:11:38;11.30;99.90
8965;DHT22;4517;49.020;12.066;2023-04-01T14:14:08;11.30;99.90
8965;DHT22;4517;49.020;12.066;2023-04-01T14:17:36;11.50;99.90
8965;DHT22;4517;49.020;12.066;2023-04-01T14:23:20;11.50;99.90
8965;DHT22;4517;49.020;12.066;2023-04-01T14:28:49;11.30;99.90
8965;DHT22;4517;49.020;12.066;2023-04-01T14:34:06;11.40;99.90
8965;DHT22;4517;49.020;12.066;2023-04-01T14:39:21;11.50;99.90
8965;DHT22;4517;49.020;12.066;2023-04-01T14:44:37;11.50;99.90
8965;DHT22;4517;49.020;12.066;2023-04-01T14:49:47;11.30;99.90
8965;DHT22;4517;49.020;12.066;2023-04-01T14:52:21;11.10;99.90
8965;DHT22;4517;49.020;12.066;2023-04-01T14:54:49;11.10;99.90
8965;DHT22;4517;49.020;12.066;2023-04-01T14:57:30;11.00;99.90
8965;DHT22;4517;49.020;12.066;2023-04-01T15:00:17;11.00;99.90
8965;DHT22;4517;49.020;12.066;2023-04-01T15:06:08;11.00;99.90
8965;DHT22;4517;49.020;12.066;2023-04-01T15:09:10;11.00;99.90
8965;DHT22;4517;49.020;12.066;2023-04-01T15:14:37;11.20;99.90
8965;DHT22;4517;49.020;12.066;2023-04-01T15:40:11;11.40;99.90
8965;DHT22;4517;49.020;12.066;2023-04-01T15:48:02;11.30;99.90
8965;DHT22;4517;49.020;12.066;2023-04-01T15:55:47;11.20;99.90
8965;DHT22;4517;49.020;12.066;2023-04-01T15:58:38;11.10;99.90
8965;DHT22;4517;49.020;12.066;2023-04-01T16:17:41;10.90;99.90
8965;DHT22;4517;49.020;12.066;2023-04-01T16:22:39;10.80;99.90
8965;DHT22;4517;49.020;12.066;2023-04-01T16:25:29;10.80;99.90
8965;DHT22;4517;49.020;12.066;2023-04-01T16:30:47;10.70;99.90
8965;DHT22;4517;49.020;12.066;2023-04-01T16:33:32;10.60;99.90
8965;DHT22;4517;49.020;12.066;2023-04-01T16:41:29;10.30;99.90
8965;DHT22;4517;49.020;12.066;2023-04-01T16:44:20;10.20;99.90
8965;DHT22;4517;49.020;12.066;2023-04-01T16:46:49;10.10;99.90
8965;DHT22;4517;49.020;12.066;2023-04-01T16:52:13;10.00;99.90
8965;DHT22;4517;49.020;12.066;2023-04-01T16:55:02;9.90;99.90
8965;DHT22;4517;49.020;12.066;2023-04-01T16:57:50;9.90;99.90
8965;DHT22;4517;49.020;12.066;2023-04-01T17:00:38;9.80;99.90
8965;DHT22;4517;49.020;12.066;2023-04-01T17:03:18;9.80;99.90
8965;DHT22;4517;49.020;12.066;2023-04-01T17:06:00;9.80;99.90
8965;DHT22;4517;49.020;12.066;2023-04-01T17:11:19;9.60;99.90
8965;DHT22;4517;49.020;12.066;2023-04-01T17:17:09;9.70;99.90
8965;DHT22;4517;49.020;12.066;2023-04-01T17:27:44;9.40;99.90
8965;DHT22;4517;49.020;12.066;2023-04-01T17:30:28;9.40;99.90
8965;DHT22;4517;49.020;12.066;2023-04-01T17:35:59;9.40;99.90
8965;DHT22;4517;49.020;12.066;2023-04-01T17:41:36;9.30;99.90
8965;DHT22;4517;49.020;12.066;2023-04-01T17:44:22;9.20;99.90
8965;DHT22;4517;49.020;12.066;2023-04-01T17:47:04;9.10;99.90
8965;DHT22;4517;49.020;12.066;2023-04-01T17:52:30;9.20;99.90
8965;DHT22;4517;49.020;12.066;2023-04-01T17:58:13;9.20;99.90
8965;DHT22;4517;49.020;12.066;2023-04-01T18:06:35;9.20;99.90
8965;DHT22;4517;49.020;12.066;2023-04-01T18:09:34;9.10;99.90
8965;DHT22;4517;49.020;12.066;2023-04-01T18:15:00;9.10;99.90
8965;DHT22;4517;49.020;12.066;2023-04-01T18:20:18;9.10;99.90
8965;DHT22;4517;49.020;12.066;2023-04-01T18:23:20;9.10;99.90
8965;DHT22;4517;49.020;12.066;2023-04-01T18:25:52;9.00;99.90
8965;DHT22;4517;49.020;12.066;2023-04-01T18:30:57;9.00;99.90
8965;DHT22;4517;49.020;12.066;2023-04-01T18:33:34;8.90;99.90
8965;DHT22;4517;49.020;12.066;2023-04-01T18:39:10;8.90;99.90
8965;DHT22;4517;49.020;12.066;2023-04-01T18:44:51;8.90;99.90
8965;DHT22;4517;49.020;12.066;2023-04-01T18:47:43;8.90;99.90
8965;DHT22;4517;49.020;12.066;2023-04-01T18:50:50;9.00;99.90
8965;DHT22;4517;49.020;12.066;2023-04-01T18:53:29;9.00;99.90
8965;DHT22;4517;49.020;12.066;2023-04-01T18:58:51;8.90;99.90
8965;DHT22;4517;49.020;12.066;2023-04-01T19:01:24;8.90;99.90
8965;DHT22;4517;49.020;12.066;2023-04-01T19:04:07;9.00;99.90
8965;DHT22;4517;49.020;12.066;2023-04-01T19:17:51;9.10;99.90
8965;DHT22;4517;49.020;12.066;2023-04-01T19:23:13;9.10;99.90
8965;DHT22;4517;49.020;12.066;2023-04-01T19:25:48;9.10;99.90
8965;DHT22;4517;49.020;12.066;2023-04-01T19:28:31;9.10;99.90
8965;DHT22;4517;49.020;12.066;2023-04-01T19:31:10;9.10;99.90
8965;DHT22;4517;49.020;12.066;2023-04-01T19:33:59;9.10;99.90
8965;DHT22;4517;49.020;12.066;2023-04-01T19:42:02;9.20;99.90
8965;DHT22;4517;49.020;12.066;2023-04-01T19:44:53;9.10;99.90
8965;DHT22;4517;49.020;12.066;2023-04-01T19:52:52;9.10;99.90
8965;DHT22;4517;49.020;12.066;2023-04-01T19:55:28;9.10;99.90
8965;DHT22;4517;49.020;12.066;2023-04-01T20:00:58;9.00;99.90
8965;DHT22;4517;49.020;12.066;2023-04-01T20:03:39;9.00;99.90
8965;DHT22;4517;49.020;12.066;2023-04-01T20:06:14;9.00;99.90
8965;DHT22;4517;49.020;12.066;2023-04-01T20:08:58;9.00;99.90
8965;DHT22;4517;49.020;12.066;2023-04-01T20:14:14;8.90;99.90
8965;DHT22;4517;49.020;12.066;2023-04-01T20:19:45;8.80;99.90
8965;DHT22;4517;49.020;12.066;2023-04-01T20:22:25;8.80;99.90
8965;DHT22;4517;49.020;12.066;2023-04-01T20:24:58;8.70;99.90
8965;DHT22;4517;49.020;12.066;2023-04-01T20:27:31;8.70;99.90
8965;DHT22;4517;49.020;12.066;2023-04-01T20:32:52;8.70;99.90
8965;DHT22;4517;49.020;12.066;2023-04-01T20:35:35;8.70;99.90
8965;DHT22;4517;49.020;12.066;2023-04-01T20:46:23;8.90;99.90
8965;DHT22;4517;49.020;12.066;2023-04-01T20:57:48;8.90;99.90
8965;DHT22;4517;49.020;12.066;2023-04-01T21:03:10;8.80;99.90
8965;DHT22;4517;49.020;12.066;2023-04-01T21:08:45;8.70;99.90
8965;DHT22;4517;49.020;12.066;2023-04-01T21:16:38;8.70;99.90
8965;DHT22;4517;49.020;12.066;2023-04-01T21:19:21;8.70;99.90
8965;DHT22;4517;49.020;12.066;2023-04-01T21:27:39;8.80;99.90
8965;DHT22;4517;49.020;12.066;2023-04-01T21:35:46;8.80;99.90
8965;DHT22;4517;49.020;12.066;2023-04-01T21:41:05;8.70;99.90
8965;DHT22;4517;49.020;12.066;2023-04-01T21:52:01;8.80;99.90
8965;DHT22;4517;49.020;12.066;2023-04-01T22:21:56;8.80;99.90
8965;DHT22;4517;49.020;12.066;2023-04-01T22:25:05;8.80;99.90
8965;DHT22;4517;49.020;12.066;2023-04-01T22:27:55;8.80;99.90
8965;DHT22;4517;49.020;12.066;2023-04-01T22:30:58;8.80;99.90
8965;DHT22;4517;49.020;12.066;2023-04-01T22:36:57;8.80;99.90
8965;DHT22;4517;49.020;12.066;2023-04-01T22:39:36;8.80;99.90
8965;DHT22;4517;49.020;12.066;2023-04-01T22:48:09;8.80;99.90
8965;DHT22;4517;49.020;12.066;2023-04-01T22:50:54;8.80;99.90
8965;DHT22;4517;49.020;12.066;2023-04-01T22:56:36;8.80;99.90
8965;DHT22;4517;49.020;12.066;2023-04-01T22:59:15;8.80;99.90
8965;DHT22;4517;49.020;12.066;2023-04-01T23:02:03;8.70;99.90
8965;DHT22;4517;49.020;12.066;2023-04-01T23:04:33;8.70;99.90
8965;DHT22;4517;49.020;12.066;2023-04-01T23:07:19;8.80;99.90
8965;DHT22;4517;49.020;12.066;2023-04-01T23:09:49;8.90;99.90
8965;DHT22;4517;49.020;12.066;2023-04-01T23:12:16;8.90;99.90
8965;DHT22;4517;49.020;12.066;2023-04-01T23:14:54;8.90;99.90
8965;DHT22;4517;49.020;12.066;2023-04-01T23:17:42;8.90;99.90
8965;DHT22;4517;49.020;12.066;2023-04-01T23:20:26;9.00;99.90
8965;DHT22;4517;49.020;12.066;2023-04-01T23:26:01;9.00;99.90
8965;DHT22;4517;49.020;12.066;2023-04-01T23:31:35;9.10;99.90
8965;DHT22;4517;49.020;12.066;2023-04-01T23:36:42;8.90;99.90
8965;DHT22;4517;49.020;12.066;2023-04-01T23:39:32;9.00;99.90
8965;DHT22;4517;49.020;12.066;2023-04-01T23:42:07;8.90;99.90
8965;DHT22;4517;49.020;12.066;2023-04-01T23:44:39;8.90;99.90
8965;DHT22;4517;49.020;12.066;2023-04-01T23:47:08;8.90;99.90
8965;DHT22;4517;49.020;12.066;2023-04-01T23:49:44;8.90;99.90
8965;DHT22;4517;49.020;12.066;2023-04-01T23:52:27;8.90;99.90
